Terminal Aerodrome Forecast
Issued by NWS

Home | Current Version | Previous Version | Graphics & Text | Print | Product List | Glossary On
Versions: 1 2 3 4 5 6 7 8 9 10 11 12 13
711
FTUS43 KMPX 051130
TAFAXN
TAF
KAXN 051130Z 0512/0612 20007KT P6SM FEW250
     FM051600 24011G17KT P6SM SCT250
     FM060000 22007KT P6SM SKC=

USA.gov is the U.S. government's official web portal to all federal, state and local government web resources and services.